createdAt,value
2019-05-17T00:00:27.401Z,84.57
2019-05-17T00:03:36.512Z,84.65
2019-05-17T00:06:47.464Z,84.41
2019-05-17T00:09:57.130Z,84.44
2019-05-17T00:13:07.568Z,84.74
2019-05-17T00:16:17.509Z,85.00
2019-05-17T00:19:26.436Z,84.87
2019-05-17T00:22:36.624Z,85.06
2019-05-17T00:25:47.004Z,85.28
2019-05-17T00:28:56.272Z,85.62
2019-05-17T00:32:06.493Z,86.04
2019-05-17T00:35:17.554Z,86.37
2019-05-17T00:38:27.423Z,86.44
2019-05-17T00:41:37.458Z,86.36
2019-05-17T00:44:47.363Z,86.50
2019-05-17T00:48:06.803Z,86.51
2019-05-17T00:51:27.432Z,86.50
2019-05-17T00:54:36.280Z,86.36
2019-05-17T00:57:47.241Z,86.11
2019-05-17T01:00:57.159Z,86.22
2019-05-17T01:04:06.889Z,86.26
2019-05-17T01:07:17.706Z,86.11
2019-05-17T01:10:27.206Z,86.00
2019-05-17T01:13:37.433Z,86.28
2019-05-17T01:16:47.490Z,86.30
2019-05-17T01:19:57.357Z,86.22
2019-05-17T01:23:07.719Z,86.44
2019-05-17T01:26:18.415Z,86.31
2019-05-17T01:29:26.941Z,86.05
2019-05-17T01:32:37.481Z,85.78
2019-05-17T01:35:46.589Z,86.24
2019-05-17T01:38:57.686Z,85.88
2019-05-17T01:42:06.796Z,85.82
2019-05-17T01:45:16.629Z,86.17
2019-05-17T01:48:36.544Z,86.12
2019-05-17T01:51:46.520Z,86.54
2019-05-17T01:54:57.139Z,86.94
2019-05-17T01:58:16.413Z,86.64
2019-05-17T02:01:27.409Z,87.23
2019-05-17T02:04:37.713Z,87.02
2019-05-17T02:07:46.762Z,86.98
2019-05-17T02:10:57.429Z,86.93
2019-05-17T02:14:06.966Z,87.03
2019-05-17T02:17:17.422Z,87.24
2019-05-17T02:20:27.552Z,86.94
2019-05-17T02:23:46.936Z,87.25
2019-05-17T02:26:57.104Z,87.18
2019-05-17T02:30:08.144Z,86.94
2019-05-17T02:33:17.771Z,87.49
2019-05-17T02:36:36.618Z,87.44
2019-05-17T02:39:58.314Z,87.52
2019-05-17T02:42:55.733Z,87.24
2019-05-17T02:46:04.513Z,87.54
2019-05-17T02:49:13.852Z,87.54
2019-05-17T02:52:23.074Z,87.39
2019-05-17T02:55:32.411Z,87.60
2019-05-17T02:58:43.918Z,87.80
2019-05-17T03:01:52.668Z,87.29
2019-05-17T03:05:03.943Z,87.38
2019-05-17T03:08:12.389Z,86.91
2019-05-17T03:11:22.709Z,86.87
2019-05-17T03:14:32.741Z,87.01
2019-05-17T03:17:43.452Z,86.96
2019-05-17T03:20:52.721Z,86.75
2019-05-17T03:24:03.503Z,86.95
2019-05-17T03:27:13.484Z,86.84
2019-05-17T03:30:25.801Z,87.11
2019-05-17T03:33:35.965Z,87.11
2019-05-17T03:36:56.379Z,87.53
2019-05-17T03:40:35.332Z,87.79
2019-05-17T03:43:25.459Z,87.74
2019-05-17T03:46:44.235Z,87.90
2019-05-17T03:49:53.198Z,87.72
2019-05-17T03:53:13.160Z,87.18
2019-05-17T03:56:22.536Z,87.52
2019-05-17T03:59:33.463Z,87.95
2019-05-17T04:02:44.511Z,87.69
2019-05-17T04:05:52.894Z,87.53
2019-05-17T04:09:13.847Z,87.50
2019-05-17T04:12:23.185Z,87.37
2019-05-17T04:15:32.855Z,87.10
2019-05-17T04:18:53.473Z,87.11
2019-05-17T04:22:03.496Z,87.09
2019-05-17T04:25:13.586Z,87.07
2019-05-17T04:28:23.205Z,87.77
2019-05-17T04:31:34.810Z,87.67
2019-05-17T04:34:43.722Z,87.62
2019-05-17T04:37:53.265Z,87.82
2019-05-17T04:41:41.303Z,87.70
2019-05-17T04:44:43.166Z,87.54
2019-05-17T04:47:52.843Z,87.10
2019-05-17T04:51:02.709Z,87.17
2019-05-17T04:54:13.714Z,86.88
2019-05-17T04:57:23.595Z,86.41
2019-05-17T05:00:33.955Z,86.47
2019-05-17T05:03:43.144Z,87.02
2019-05-17T05:07:03.101Z,86.83
2019-05-17T05:10:13.424Z,87.40
2019-05-17T05:13:22.873Z,87.21
2019-05-17T05:16:32.105Z,86.15
2019-05-17T05:19:53.118Z,86.39
2019-05-17T05:23:02.621Z,86.90
2019-05-17T05:26:12.049Z,86.84
2019-05-17T05:29:32.150Z,86.88
2019-05-17T05:32:42.612Z,86.97
2019-05-17T05:35:51.683Z,87.02
2019-05-17T05:39:02.416Z,86.72
2019-05-17T05:42:13.834Z,86.52
2019-05-17T05:45:22.777Z,86.72
2019-05-17T05:48:32.868Z,85.88
2019-05-17T05:51:42.534Z,85.10
2019-05-17T05:55:01.674Z,85.39
2019-05-17T05:58:12.115Z,85.22
2019-05-17T06:01:21.968Z,84.98
2019-05-17T06:04:31.839Z,84.74
2019-05-17T06:07:41.657Z,84.73
2019-05-17T06:11:02.197Z,84.89
2019-05-17T06:14:12.142Z,85.40
2019-05-17T06:17:21.634Z,85.35
2019-05-17T06:20:32.406Z,85.59
2019-05-17T06:23:53.314Z,84.95
2019-05-17T06:27:02.100Z,84.67
2019-05-17T06:30:23.064Z,84.29
2019-05-17T06:33:42.308Z,83.65
2019-05-17T06:37:02.317Z,83.71
2019-05-17T06:40:13.118Z,82.85
2019-05-17T06:43:21.901Z,82.67
2019-05-17T06:46:32.508Z,82.18
2019-05-17T06:49:42.455Z,83.18
2019-05-17T06:52:53.203Z,82.93
2019-05-17T06:56:03.002Z,82.61
2019-05-17T06:59:11.816Z,81.71
2019-05-17T07:02:20.519Z,80.89
2019-05-17T07:05:31.988Z,80.58
2019-05-17T07:08:55.196Z,80.19
2019-05-17T07:12:03.878Z,80.12
2019-05-17T07:15:12.981Z,80.09
2019-05-17T07:18:32.037Z,78.34
2019-05-17T07:21:40.688Z,78.96
2019-05-17T07:24:50.229Z,78.33
2019-05-17T07:28:00.444Z,77.03
2019-05-17T07:31:10.155Z,77.64
2019-05-17T07:34:19.999Z,78.17
2019-05-17T07:37:30.328Z,78.09
2019-05-17T07:40:39.881Z,78.26
2019-05-17T07:44:01.773Z,76.54
2019-05-17T07:47:10.399Z,76.77
2019-05-17T07:50:20.067Z,77.17
2019-05-17T07:53:30.699Z,75.55
2019-05-17T07:56:40.242Z,76.07
2019-05-17T07:59:59.980Z,76.67
2019-05-17T08:03:12.641Z,76.29
2019-05-17T08:06:19.849Z,75.04
2019-05-17T08:09:30.052Z,75.03
2019-05-17T08:12:40.565Z,75.09
2019-05-17T08:15:50.203Z,74.74
2019-05-17T08:19:09.769Z,75.73
2019-05-17T08:22:20.222Z,74.98
2019-05-17T08:25:30.492Z,73.58
2019-05-17T08:28:49.924Z,74.76
2019-05-17T08:32:00.353Z,73.44
2019-05-17T08:35:11.185Z,74.62
2019-05-17T08:38:19.936Z,74.20
2019-05-17T08:41:30.914Z,73.05
2019-05-17T08:44:40.071Z,72.87
2019-05-17T08:48:00.365Z,71.73
2019-05-17T08:51:10.775Z,70.47
2019-05-17T08:54:23.091Z,70.21
2019-05-17T08:57:32.880Z,69.37
2019-05-17T09:00:42.877Z,68.66
2019-05-17T09:03:52.073Z,68.91
2019-05-17T09:07:03.159Z,68.95
2019-05-17T09:10:11.129Z,68.93
2019-05-17T09:13:19.805Z,68.96
2019-05-17T09:16:31.206Z,69.62
2019-05-17T09:19:42.574Z,68.59
2019-05-17T09:22:51.289Z,67.59
2019-05-17T09:26:02.017Z,66.81
2019-05-17T09:29:10.906Z,64.54
2019-05-17T09:32:20.100Z,66.01
2019-05-17T09:35:30.020Z,66.76
2019-05-17T09:38:40.515Z,65.80
2019-05-17T09:41:50.261Z,66.72
2019-05-17T09:45:00.350Z,65.26
2019-05-17T09:48:10.228Z,64.70
2019-05-17T09:51:30.328Z,65.15
2019-05-17T09:54:45.134Z,65.21
2019-05-17T09:57:49.806Z,64.31
2019-05-17T10:01:01.072Z,61.81
2019-05-17T10:04:12.965Z,61.41
2019-05-17T10:07:20.809Z,62.41
2019-05-17T10:10:29.291Z,63.21
2019-05-17T10:13:37.895Z,63.23
2019-05-17T10:16:56.773Z,61.65
2019-05-17T10:20:06.122Z,61.52
2019-05-17T10:23:24.970Z,59.91
2019-05-17T10:26:33.585Z,60.12
2019-05-17T10:29:42.211Z,59.30
2019-05-17T10:32:50.899Z,59.65
2019-05-17T10:36:00.518Z,58.20
2019-05-17T10:39:10.111Z,57.69
2019-05-17T10:42:20.939Z,57.16
2019-05-17T10:45:30.485Z,55.60
2019-05-17T10:48:41.115Z,55.69
2019-05-17T10:51:49.594Z,55.70
2019-05-17T10:54:59.904Z,56.15
2019-05-17T10:58:09.974Z,56.14
2019-05-17T11:01:20.038Z,55.35
2019-05-17T11:04:28.759Z,56.35
2019-05-17T11:07:37.422Z,55.42
2019-05-17T11:10:46.089Z,55.65
2019-05-17T11:13:54.713Z,53.72
2019-05-17T11:17:03.509Z,53.55
2019-05-17T11:20:13.096Z,51.98
2019-05-17T11:23:21.626Z,51.88
2019-05-17T11:26:32.048Z,53.29
2019-05-17T11:29:40.574Z,53.04
2019-05-17T11:32:49.275Z,54.29
2019-05-17T11:35:57.972Z,56.26
2019-05-17T11:39:07.867Z,54.78
2019-05-17T11:42:26.635Z,53.40
2019-05-17T11:45:35.173Z,53.99
2019-05-17T11:48:43.782Z,52.28
2019-05-17T11:51:52.488Z,53.81
2019-05-17T11:55:01.106Z,51.47
2019-05-17T11:58:09.835Z,49.66
2019-05-17T12:01:18.462Z,49.84
2019-05-17T12:04:27.064Z,49.24
2019-05-17T12:07:45.891Z,48.50
2019-05-17T12:10:54.833Z,49.13
2019-05-17T12:14:03.486Z,47.85
2019-05-17T12:17:12.267Z,49.79
2019-05-17T12:20:23.535Z,50.82
2019-05-17T12:23:31.785Z,51.09
2019-05-17T12:26:50.744Z,49.95
2019-05-17T12:29:59.365Z,49.30
2019-05-17T12:33:08.481Z,48.80
2019-05-17T12:36:17.015Z,49.61
2019-05-17T12:39:25.901Z,47.23
2019-05-17T12:42:34.632Z,47.23
2019-05-17T12:45:58.043Z,45.45
2019-05-17T12:49:04.522Z,43.72
2019-05-17T12:52:13.151Z,44.19
2019-05-17T12:55:21.745Z,45.11
2019-05-17T12:58:30.409Z,44.22
2019-05-17T13:01:39.121Z,46.40
2019-05-17T13:04:47.739Z,46.79
2019-05-17T13:07:56.377Z,46.74
2019-05-17T13:11:05.254Z,47.04
2019-05-17T13:14:13.843Z,46.67
2019-05-17T13:17:22.568Z,45.65
2019-05-17T13:20:41.343Z,45.86
2019-05-17T13:23:49.968Z,46.68
2019-05-17T13:26:58.569Z,45.90
2019-05-17T13:30:10.383Z,46.51
2019-05-17T13:33:19.586Z,46.17
2019-05-17T13:36:28.158Z,46.55
2019-05-17T13:39:36.727Z,46.85
2019-05-17T13:42:45.479Z,46.79
2019-05-17T13:45:54.233Z,47.02
2019-05-17T13:49:04.779Z,46.54
2019-05-17T13:52:13.449Z,47.34
2019-05-17T13:55:22.122Z,47.10
2019-05-17T13:58:30.785Z,47.74
2019-05-17T14:01:49.537Z,46.79
2019-05-17T14:04:58.050Z,46.99
2019-05-17T14:08:06.656Z,48.67
2019-05-17T14:11:15.340Z,47.70
2019-05-17T14:14:24.007Z,47.64
2019-05-17T14:17:32.622Z,47.35
2019-05-17T14:20:41.160Z,47.74
2019-05-17T14:24:00.028Z,47.89
2019-05-17T14:27:08.549Z,47.64
2019-05-17T14:30:17.376Z,47.43
2019-05-17T14:33:25.985Z,47.24
2019-05-17T14:36:34.684Z,47.33
2019-05-17T14:39:43.320Z,47.17
2019-05-17T14:42:53.493Z,47.13
2019-05-17T14:46:02.150Z,46.97
2019-05-17T14:49:20.874Z,47.24
2019-05-17T14:52:29.527Z,46.13
2019-05-17T14:55:38.080Z,45.74
2019-05-17T14:58:46.828Z,45.86
2019-05-17T15:01:57.351Z,45.99
2019-05-17T15:05:06.565Z,46.72
2019-05-17T15:08:15.193Z,47.52
2019-05-17T15:11:23.868Z,46.77
2019-05-17T15:14:32.502Z,47.43
2019-05-17T15:17:41.160Z,48.38
2019-05-17T15:20:49.783Z,49.34
2019-05-17T15:23:58.424Z,48.47
2019-05-17T15:27:07.249Z,48.00
2019-05-17T15:30:16.795Z,47.65
2019-05-17T15:33:25.402Z,47.30
2019-05-17T15:36:34.153Z,47.65
2019-05-17T15:39:42.762Z,47.00
2019-05-17T15:42:51.282Z,48.07
2019-05-17T15:45:59.776Z,47.38
2019-05-17T15:49:18.764Z,47.58
2019-05-17T15:52:27.684Z,47.12
2019-05-17T15:55:46.707Z,47.25
2019-05-17T15:58:55.336Z,47.33
2019-05-17T16:02:04.264Z,47.14
2019-05-17T16:05:14.086Z,47.38
2019-05-17T16:08:23.129Z,46.49
2019-05-17T16:11:30.262Z,47.12
2019-05-17T16:14:38.883Z,47.25
2019-05-17T16:17:47.506Z,47.02
2019-05-17T16:20:56.159Z,47.89
2019-05-17T16:24:14.825Z,48.59
2019-05-17T16:27:23.383Z,48.28
2019-05-17T16:30:32.167Z,48.43
2019-05-17T16:33:40.716Z,48.93
2019-05-17T16:36:49.375Z,49.21
2019-05-17T16:39:57.992Z,48.96
2019-05-17T16:43:17.594Z,48.91
2019-05-17T16:46:17.130Z,48.75
2019-05-17T16:49:35.805Z,49.64
2019-05-17T16:52:44.585Z,48.88
2019-05-17T16:55:53.158Z,49.07
2019-05-17T16:59:01.971Z,48.93
2019-05-17T17:02:10.968Z,47.94
2019-05-17T17:05:19.533Z,48.48
2019-05-17T17:08:28.256Z,48.67
2019-05-17T17:11:36.781Z,48.87
2019-05-17T17:14:46.855Z,48.59
2019-05-17T17:17:55.519Z,49.12
2019-05-17T17:21:14.237Z,48.79
2019-05-17T17:24:22.850Z,49.03
2019-05-17T17:27:31.466Z,48.72
2019-05-17T17:30:40.168Z,49.03
2019-05-17T17:33:48.898Z,49.60
2019-05-17T17:36:57.402Z,49.22
2019-05-17T17:40:06.795Z,49.14
2019-05-17T17:43:16.366Z,48.95
2019-05-17T17:46:35.164Z,48.69
2019-05-17T17:49:44.082Z,48.21
2019-05-17T17:52:53.919Z,48.50
2019-05-17T17:56:02.644Z,48.71
2019-05-17T17:59:11.247Z,49.04
2019-05-17T18:02:19.874Z,49.48
2019-05-17T18:05:28.507Z,49.91
2019-05-17T18:08:47.228Z,50.13
2019-05-17T18:11:55.786Z,50.43
2019-05-17T18:15:06.506Z,50.38
2019-05-17T18:18:16.313Z,57.66
2019-05-17T18:21:25.003Z,59.56
2019-05-17T18:24:33.657Z,60.75
2019-05-17T18:27:42.290Z,61.11
2019-05-17T18:30:50.911Z,61.54
2019-05-17T18:34:09.746Z,62.42
2019-05-17T18:37:18.368Z,63.04
2019-05-17T18:40:27.037Z,63.19
2019-05-17T18:43:35.684Z,63.72
2019-05-17T18:46:44.346Z,64.29
2019-05-17T18:49:52.950Z,64.76
2019-05-17T18:53:05.060Z,65.05
2019-05-17T18:56:11.973Z,65.35
2019-05-17T18:59:30.642Z,65.61
2019-05-17T19:02:39.280Z,65.50
2019-05-17T19:05:47.911Z,65.62
2019-05-17T19:08:56.553Z,66.15
2019-05-17T19:12:05.269Z,66.32
2019-05-17T19:15:15.249Z,66.99
2019-05-17T19:18:24.062Z,67.12
2019-05-17T19:21:44.102Z,67.70
2019-05-17T19:24:52.892Z,68.34
2019-05-17T19:28:01.521Z,68.21
2019-05-17T19:31:10.023Z,68.74
2019-05-17T19:34:18.978Z,69.27
2019-05-17T19:37:27.517Z,69.29
2019-05-17T19:40:36.123Z,69.93
2019-05-17T19:43:54.922Z,69.66
2019-05-17T19:47:03.822Z,70.11
2019-05-17T19:50:12.702Z,70.23
2019-05-17T19:53:24.013Z,70.19
2019-05-17T19:56:31.173Z,70.31
2019-05-17T19:59:39.696Z,70.61
2019-05-17T20:02:48.233Z,71.34
2019-05-17T20:06:07.097Z,71.60
2019-05-17T20:09:15.927Z,71.17
2019-05-17T20:12:24.637Z,70.88
2019-05-17T20:15:34.898Z,70.84
2019-05-17T20:18:43.376Z,70.46
2019-05-17T20:21:51.869Z,70.69
2019-05-17T20:25:00.497Z,70.69
2019-05-17T20:28:09.162Z,71.36
2019-05-17T20:31:28.047Z,71.58
2019-05-17T20:34:36.688Z,71.98
2019-05-17T20:37:45.322Z,71.67
2019-05-17T20:40:54.110Z,72.21
2019-05-17T20:44:02.756Z,72.46
2019-05-17T20:47:11.300Z,72.66
2019-05-17T20:50:19.926Z,72.82
2019-05-17T20:53:28.525Z,73.13
2019-05-17T20:56:47.298Z,73.14
2019-05-17T20:59:55.827Z,73.62
2019-05-17T21:03:04.358Z,73.71
2019-05-17T21:06:13.145Z,74.17
2019-05-17T21:09:21.687Z,73.92
2019-05-17T21:12:30.209Z,73.88
2019-05-17T21:15:49.152Z,74.06
2019-05-17T21:18:57.685Z,74.23
2019-05-17T21:22:06.224Z,73.47
2019-05-17T21:25:15.255Z,74.13
2019-05-17T21:28:23.785Z,74.33
2019-05-17T21:31:32.388Z,74.75
2019-05-17T21:34:40.989Z,75.16
2019-05-17T21:37:49.575Z,75.18
2019-05-17T21:41:08.309Z,75.31
2019-05-17T21:44:16.945Z,74.87
2019-05-17T21:47:25.464Z,75.10
2019-05-17T21:50:33.999Z,75.65
2019-05-17T21:53:42.516Z,75.38
2019-05-17T21:56:51.211Z,75.97
2019-05-17T22:00:13.578Z,76.49
2019-05-17T22:03:22.156Z,76.50
2019-05-17T22:06:30.714Z,77.37
2019-05-17T22:09:39.265Z,77.19
2019-05-17T22:12:47.859Z,76.91
2019-05-17T22:15:56.525Z,77.01
2019-05-17T22:19:05.107Z,77.31
2019-05-17T22:22:23.732Z,77.10
2019-05-17T22:25:32.365Z,76.86
2019-05-17T22:28:40.883Z,77.24
2019-05-17T22:31:49.413Z,77.07
2019-05-17T22:34:58.044Z,76.93
2019-05-17T22:38:06.587Z,77.01
2019-05-17T22:41:25.434Z,77.12
2019-05-17T22:44:34.065Z,77.41
2019-05-17T22:47:42.721Z,77.28
2019-05-17T22:50:51.302Z,77.48
2019-05-17T22:53:59.908Z,77.80
2019-05-17T22:57:08.446Z,78.08
2019-05-17T23:00:17.248Z,77.96
2019-05-17T23:03:35.950Z,78.19
2019-05-17T23:06:44.688Z,78.80
2019-05-17T23:09:53.356Z,78.80
2019-05-17T23:13:02.009Z,79.08
2019-05-17T23:16:12.845Z,78.91
2019-05-17T23:19:21.359Z,78.93
2019-05-17T23:22:29.991Z,78.93
2019-05-17T23:25:38.503Z,78.86
2019-05-17T23:28:47.233Z,78.80
2019-05-17T23:31:55.862Z,78.59
2019-05-17T23:35:04.786Z,78.86
2019-05-17T23:38:13.426Z,78.79
2019-05-17T23:41:32.058Z,79.71
2019-05-17T23:44:40.667Z,79.74
2019-05-17T23:47:49.307Z,79.66
2019-05-17T23:50:57.920Z,79.75
2019-05-17T23:54:06.564Z,79.75
2019-05-17T23:57:15.082Z,79.89
